createdAt,value
2023-10-15T00:00:28.705Z,84.41
2023-10-15T00:02:55.698Z,81.65
2023-10-15T00:05:27.257Z,80.38
2023-10-15T00:07:55.422Z,82.28
2023-10-15T00:10:24.726Z,84.19
2023-10-15T00:12:54.262Z,80.95
2023-10-15T00:15:24.484Z,83.96
2023-10-15T00:17:53.750Z,85.96
2023-10-15T00:20:22.686Z,85.81
2023-10-15T00:22:51.569Z,87.96
2023-10-15T00:25:21.135Z,86.87
2023-10-15T00:27:54.574Z,86.36
2023-10-15T00:30:22.373Z,85.29
2023-10-15T00:32:50.592Z,83.98
2023-10-15T00:35:23.902Z,87.05
2023-10-15T00:37:56.546Z,85.89
2023-10-15T00:40:29.335Z,85.27
2023-10-15T00:42:59.112Z,86.53
2023-10-15T00:45:25.967Z,85.28
2023-10-15T00:48:15.350Z,84.28
2023-10-15T00:50:43.014Z,89.22
2023-10-15T00:53:22.955Z,84.31
2023-10-15T00:56:05.222Z,85.29
2023-10-15T00:58:35.306Z,86.32
2023-10-15T01:03:39.449Z,87.67
2023-10-15T01:06:07.011Z,86.57
2023-10-15T01:08:39.158Z,85.66
2023-10-15T01:11:12.684Z,89.80
2023-10-15T01:13:40.088Z,83.88
2023-10-15T01:16:09.909Z,86.82
2023-10-15T01:18:38.058Z,87.00
2023-10-15T01:21:10.760Z,88.98
2023-10-15T01:23:44.228Z,86.63
2023-10-15T01:26:16.368Z,85.00
2023-10-15T01:28:44.822Z,89.71
2023-10-15T01:31:16.531Z,86.56
2023-10-15T01:33:51.483Z,87.23
2023-10-15T01:36:28.867Z,88.39
2023-10-15T01:39:03.769Z,85.99
2023-10-15T01:41:30.523Z,88.41
2023-10-15T01:44:02.544Z,88.16
2023-10-15T01:47:02.061Z,87.75
2023-10-15T01:49:35.358Z,87.07
2023-10-15T01:52:10.396Z,89.19
2023-10-15T01:54:38.371Z,89.78
2023-10-15T01:57:08.672Z,85.56
2023-10-15T01:59:48.590Z,88.08
2023-10-15T02:02:19.075Z,90.35
2023-10-15T02:04:46.819Z,89.67
2023-10-15T02:07:18.051Z,94.71
2023-10-15T02:09:45.655Z,92.88
2023-10-15T02:12:19.103Z,93.97
2023-10-15T02:14:49.050Z,92.40
2023-10-15T02:17:20.063Z,92.29
2023-10-15T02:19:48.794Z,92.35
2023-10-15T02:22:15.678Z,93.51
2023-10-15T02:24:49.935Z,94.45
2023-10-15T02:27:26.755Z,99.10
2023-10-15T02:29:54.106Z,91.69
2023-10-15T02:32:22.895Z,96.91
2023-10-15T02:34:53.073Z,94.54
2023-10-15T02:37:32.412Z,94.91
2023-10-15T02:40:00.430Z,93.13
2023-10-15T02:42:36.980Z,94.04
2023-10-15T02:45:08.154Z,92.61
2023-10-15T02:47:49.969Z,92.46
2023-10-15T02:50:19.542Z,91.88
2023-10-15T02:52:49.895Z,93.85
2023-10-15T02:55:18.398Z,92.10
2023-10-15T02:57:45.726Z,90.78
2023-10-15T03:00:29.817Z,91.97
2023-10-15T03:02:57.456Z,91.56
2023-10-15T03:05:31.893Z,91.86
2023-10-15T03:08:00.987Z,94.84
2023-10-15T03:10:48.063Z,95.87
2023-10-15T03:13:19.801Z,89.58
2023-10-15T03:15:50.606Z,92.34
2023-10-15T03:18:30.227Z,93.98
2023-10-15T03:21:16.164Z,89.75
2023-10-15T03:23:43.848Z,92.67
2023-10-15T03:26:18.930Z,93.82
2023-10-15T03:28:47.887Z,96.22
2023-10-15T03:31:17.582Z,96.39
2023-10-15T03:34:04.976Z,97.49
2023-10-15T03:36:43.980Z,97.54
2023-10-15T03:39:16.974Z,99.48
2023-10-15T03:41:54.202Z,99.60
2023-10-15T03:44:34.330Z,98.26
2023-10-15T03:47:07.171Z,97.98
2023-10-15T03:49:34.282Z,99.47
2023-10-15T03:52:08.355Z,100.00
2023-10-15T03:54:39.378Z,100.00
2023-10-15T03:57:08.127Z,100.00
2023-10-15T03:59:54.070Z,100.00
2023-10-15T04:02:32.832Z,100.00
2023-10-15T04:05:05.072Z,100.00
2023-10-15T04:07:32.504Z,100.00
2023-10-15T04:09:59.867Z,100.00
2023-10-15T04:12:29.267Z,100.00
2023-10-15T04:15:00.041Z,100.00
2023-10-15T04:17:26.900Z,100.00
2023-10-15T04:19:53.912Z,100.00
2023-10-15T04:22:20.833Z,100.00
2023-10-15T04:24:51.713Z,100.00
2023-10-15T04:27:19.531Z,100.00
2023-10-15T04:29:53.713Z,100.00
2023-10-15T04:32:30.589Z,100.00
2023-10-15T04:35:02.886Z,100.00
2023-10-15T04:37:31.164Z,100.00
2023-10-15T04:40:17.269Z,100.00
2023-10-15T04:42:52.357Z,100.00
2023-10-15T04:45:36.326Z,100.00
2023-10-15T04:48:14.523Z,100.00
2023-10-15T04:50:44.999Z,100.00
2023-10-15T04:53:21.051Z,100.00
2023-10-15T04:55:50.028Z,100.00
2023-10-15T04:58:17.073Z,100.00
2023-10-15T05:00:51.376Z,100.00
2023-10-15T05:03:18.863Z,100.00
2023-10-15T05:05:46.172Z,100.00
2023-10-15T05:08:13.862Z,100.00
2023-10-15T05:10:52.512Z,100.00
2023-10-15T05:13:20.535Z,100.00
2023-10-15T05:15:50.836Z,100.00
2023-10-15T05:18:20.477Z,100.00
2023-10-15T05:20:51.777Z,100.00
2023-10-15T05:23:20.297Z,100.00
2023-10-15T05:25:51.161Z,100.00
2023-10-15T05:28:18.861Z,100.00
2023-10-15T05:30:46.085Z,100.00
2023-10-15T05:33:13.208Z,100.00
2023-10-15T05:35:44.303Z,98.32
2023-10-15T05:38:11.292Z,97.62
2023-10-15T05:40:38.818Z,94.57
2023-10-15T05:43:08.864Z,90.44
2023-10-15T05:45:35.706Z,94.69
2023-10-15T05:48:03.142Z,94.27
2023-10-15T05:50:31.024Z,89.27
2023-10-15T05:52:57.922Z,83.40
2023-10-15T05:55:24.755Z,89.04
2023-10-15T05:57:51.989Z,88.71
2023-10-15T06:00:19.463Z,88.98
2023-10-15T06:02:51.831Z,89.34
2023-10-15T06:05:18.990Z,89.37
2023-10-15T06:07:50.343Z,87.53
2023-10-15T06:10:18.280Z,85.06
2023-10-15T06:12:45.366Z,81.50
2023-10-15T06:15:19.301Z,77.88
2023-10-15T06:17:48.683Z,82.19
2023-10-15T06:20:15.773Z,78.60
2023-10-15T06:22:47.774Z,83.59
2023-10-15T06:25:18.151Z,79.50
2023-10-15T06:27:46.277Z,71.68
2023-10-15T06:30:20.106Z,71.37
2023-10-15T06:32:49.532Z,74.14
2023-10-15T06:35:22.149Z,75.26
2023-10-15T06:37:50.729Z,73.36
2023-10-15T06:40:23.002Z,70.33
2023-10-15T06:42:53.654Z,71.31
2023-10-15T06:45:21.730Z,67.84
2023-10-15T06:47:53.920Z,70.15
2023-10-15T06:50:25.947Z,69.36
2023-10-15T06:52:54.787Z,64.09
2023-10-15T06:55:22.302Z,63.05
2023-10-15T06:57:50.184Z,65.99
2023-10-15T07:00:24.318Z,65.98
2023-10-15T07:02:53.032Z,65.06
2023-10-15T07:05:21.722Z,65.79
2023-10-15T07:07:49.328Z,66.15
2023-10-15T07:10:17.843Z,64.81
2023-10-15T07:12:55.752Z,63.08
2023-10-15T07:15:22.851Z,66.87
2023-10-15T07:17:53.017Z,66.85
2023-10-15T07:20:22.475Z,64.47
2023-10-15T07:22:51.622Z,59.46
2023-10-15T07:25:20.445Z,61.72
2023-10-15T07:27:50.161Z,60.03
2023-10-15T07:30:21.428Z,62.25
2023-10-15T07:32:49.332Z,59.05
2023-10-15T07:35:17.243Z,60.73
2023-10-15T07:37:51.393Z,59.54
2023-10-15T07:40:23.510Z,59.96
2023-10-15T07:42:52.692Z,58.08
2023-10-15T07:45:21.495Z,58.29
2023-10-15T07:47:48.902Z,57.06
2023-10-15T07:50:24.959Z,57.81
2023-10-15T07:52:53.137Z,54.16
2023-10-15T07:55:20.726Z,53.85
2023-10-15T07:57:48.037Z,53.52
2023-10-15T08:00:16.742Z,54.21
2023-10-15T08:02:47.592Z,53.83
2023-10-15T08:05:15.166Z,53.23
2023-10-15T08:07:43.228Z,52.82
2023-10-15T08:10:11.152Z,56.25
2023-10-15T08:12:39.027Z,53.12
2023-10-15T08:15:08.087Z,53.11
2023-10-15T08:17:35.409Z,56.11
2023-10-15T08:20:04.497Z,56.67
2023-10-15T08:22:31.533Z,53.20
2023-10-15T08:24:58.392Z,54.41
2023-10-15T08:27:25.295Z,53.29
2023-10-15T08:29:52.957Z,53.38
2023-10-15T08:32:23.913Z,55.87
2023-10-15T08:34:50.829Z,55.69
2023-10-15T08:37:17.844Z,50.17
2023-10-15T08:39:44.668Z,50.46
2023-10-15T08:42:15.952Z,51.28
2023-10-15T08:44:44.917Z,52.97
2023-10-15T08:47:12.448Z,49.39
2023-10-15T08:49:47.929Z,49.21
2023-10-15T08:52:17.918Z,49.09
2023-10-15T08:54:46.491Z,49.78
2023-10-15T08:57:15.189Z,50.07
2023-10-15T08:59:44.752Z,49.54
2023-10-15T09:02:12.459Z,46.06
2023-10-15T09:04:39.805Z,46.10
2023-10-15T09:07:06.719Z,45.22
2023-10-15T09:09:34.507Z,45.06
2023-10-15T09:12:07.875Z,44.88
2023-10-15T09:14:45.653Z,43.36
2023-10-15T09:17:17.220Z,45.34
2023-10-15T09:19:45.697Z,43.96
2023-10-15T09:22:15.999Z,43.63
2023-10-15T09:24:47.682Z,45.74
2023-10-15T09:27:15.496Z,44.96
2023-10-15T09:29:50.497Z,44.41
2023-10-15T09:32:17.729Z,41.25
2023-10-15T09:34:49.757Z,43.43
2023-10-15T09:37:21.945Z,43.46
2023-10-15T09:39:50.322Z,41.06
2023-10-15T09:42:17.470Z,42.66
2023-10-15T09:44:44.715Z,41.23
2023-10-15T09:47:14.941Z,39.83
2023-10-15T09:49:43.454Z,39.52
2023-10-15T09:52:13.904Z,40.28
2023-10-15T09:54:44.209Z,38.70
2023-10-15T09:57:14.761Z,39.03
2023-10-15T09:59:41.743Z,39.20
2023-10-15T10:02:20.854Z,39.99
2023-10-15T10:05:18.534Z,38.36
2023-10-15T10:08:30.025Z,37.76
2023-10-15T10:11:47.322Z,37.14
2023-10-15T10:14:27.325Z,36.50
2023-10-15T10:16:54.763Z,38.08
2023-10-15T10:19:21.958Z,36.27
2023-10-15T10:21:49.654Z,37.02
2023-10-15T10:24:19.658Z,35.36
2023-10-15T10:26:54.506Z,34.23
2023-10-15T10:29:27.061Z,34.51
2023-10-15T10:31:57.289Z,33.82
2023-10-15T10:34:31.439Z,34.09
2023-10-15T10:36:58.456Z,33.44
2023-10-15T10:39:27.303Z,34.78
2023-10-15T10:42:00.972Z,35.50
2023-10-15T10:44:29.358Z,35.91
2023-10-15T10:46:59.557Z,37.10
2023-10-15T10:49:38.911Z,34.93
2023-10-15T10:52:18.569Z,35.53
2023-10-15T10:54:47.062Z,35.12
2023-10-15T10:57:14.130Z,34.59
2023-10-15T10:59:43.435Z,34.73
2023-10-15T11:02:13.242Z,34.83
2023-10-15T11:04:41.829Z,35.38
2023-10-15T11:07:10.858Z,34.66
2023-10-15T11:09:41.049Z,36.04
2023-10-15T11:12:13.514Z,36.25
2023-10-15T11:14:41.699Z,33.74
2023-10-15T11:17:12.232Z,34.27
2023-10-15T11:19:41.131Z,34.69
2023-10-15T11:22:08.949Z,34.09
2023-10-15T11:24:35.863Z,34.43
2023-10-15T11:27:02.989Z,33.24
2023-10-15T11:29:32.691Z,33.90
2023-10-15T11:32:00.496Z,33.68
2023-10-15T11:34:29.711Z,34.81
2023-10-15T11:36:58.194Z,33.29
2023-10-15T11:39:47.541Z,33.55
2023-10-15T11:42:15.641Z,32.81
2023-10-15T11:44:44.068Z,33.15
2023-10-15T11:47:13.733Z,32.92
2023-10-15T11:49:44.631Z,32.61
2023-10-15T11:52:17.618Z,33.39
2023-10-15T11:54:51.127Z,31.69
2023-10-15T11:57:25.675Z,30.89
2023-10-15T11:59:58.641Z,31.73
2023-10-15T12:02:28.398Z,31.71
2023-10-15T12:04:59.304Z,31.96
2023-10-15T12:07:27.045Z,31.22
2023-10-15T12:09:53.953Z,32.15
2023-10-15T12:12:20.939Z,32.47
2023-10-15T12:14:49.471Z,32.66
2023-10-15T12:17:17.772Z,32.53
2023-10-15T12:19:46.682Z,31.48
2023-10-15T12:22:16.878Z,31.06
2023-10-15T12:24:44.788Z,32.09
2023-10-15T12:27:11.854Z,32.50
2023-10-15T12:29:40.665Z,31.46
2023-10-15T12:32:10.377Z,32.71
2023-10-15T12:34:41.183Z,31.90
2023-10-15T12:37:09.150Z,31.54
2023-10-15T12:39:42.014Z,32.15
2023-10-15T12:42:10.247Z,32.07
2023-10-15T12:44:40.655Z,31.82
2023-10-15T12:47:10.505Z,31.65
2023-10-15T12:49:38.370Z,32.44
2023-10-15T12:52:06.067Z,31.27
2023-10-15T12:54:39.289Z,31.31
2023-10-15T12:57:06.062Z,31.63
2023-10-15T12:59:36.662Z,31.61
2023-10-15T13:02:05.337Z,31.03
2023-10-15T13:04:32.396Z,31.16
2023-10-15T13:06:59.313Z,32.77
2023-10-15T13:09:35.762Z,31.90
2023-10-15T13:12:03.540Z,32.09
2023-10-15T13:14:30.519Z,31.44
2023-10-15T13:16:58.518Z,30.73
2023-10-15T13:19:25.613Z,30.62
2023-10-15T13:21:52.815Z,30.71
2023-10-15T13:24:19.696Z,31.73
2023-10-15T13:26:49.464Z,31.84
2023-10-15T13:29:16.393Z,31.34
2023-10-15T13:31:43.429Z,31.43
2023-10-15T13:34:11.028Z,32.43
2023-10-15T13:36:39.062Z,31.67
2023-10-15T13:39:08.280Z,31.66
2023-10-15T13:41:35.423Z,31.49
2023-10-15T13:44:02.414Z,30.74
2023-10-15T13:46:30.298Z,30.96
2023-10-15T13:48:57.276Z,30.72
2023-10-15T13:51:26.384Z,31.57
2023-10-15T13:53:53.480Z,32.36
2023-10-15T13:56:21.516Z,31.74
2023-10-15T13:58:48.736Z,30.27
2023-10-15T14:01:16.849Z,30.81
2023-10-15T14:03:45.576Z,31.47
2023-10-15T14:06:13.449Z,30.96
2023-10-15T14:08:40.410Z,31.21
2023-10-15T14:11:08.712Z,30.84
2023-10-15T14:13:36.491Z,31.37
2023-10-15T14:16:04.399Z,31.07
2023-10-15T14:18:31.432Z,31.24
2023-10-15T14:20:58.378Z,32.04
2023-10-15T14:23:27.701Z,31.98
2023-10-15T14:25:55.266Z,31.83
2023-10-15T14:28:22.237Z,31.59
2023-10-15T14:30:51.413Z,31.99
2023-10-15T14:33:18.497Z,32.23
2023-10-15T14:35:45.392Z,31.63
2023-10-15T14:38:12.547Z,31.82
2023-10-15T14:40:40.441Z,32.25
2023-10-15T14:43:08.549Z,32.03
2023-10-15T14:45:58.571Z,32.14
2023-10-15T14:48:27.759Z,33.22
2023-10-15T14:50:54.652Z,32.41
2023-10-15T14:53:21.638Z,32.94
2023-10-15T14:55:50.416Z,32.15
2023-10-15T14:58:17.798Z,32.88
2023-10-15T15:00:44.693Z,32.34
2023-10-15T15:03:11.633Z,32.14
2023-10-15T15:05:39.104Z,32.68
2023-10-15T15:08:06.488Z,32.84
2023-10-15T15:10:36.164Z,33.43
2023-10-15T15:13:03.866Z,33.90
2023-10-15T15:15:31.024Z,35.20
2023-10-15T15:17:58.381Z,35.68
2023-10-15T15:20:25.749Z,36.12
2023-10-15T15:22:53.656Z,36.34
2023-10-15T15:25:22.007Z,36.89
2023-10-15T15:27:49.110Z,36.85
2023-10-15T15:30:16.760Z,37.31
2023-10-15T15:32:47.435Z,37.70
2023-10-15T15:35:15.462Z,38.12
2023-10-15T15:37:43.912Z,37.54
2023-10-15T15:40:12.660Z,38.24
2023-10-15T15:42:39.795Z,38.26
2023-10-15T15:45:09.236Z,38.58
2023-10-15T15:47:37.088Z,39.50
2023-10-15T15:50:10.292Z,39.35
2023-10-15T15:52:37.182Z,40.37
2023-10-15T15:55:05.664Z,42.25
2023-10-15T15:57:32.700Z,40.75
2023-10-15T15:59:59.455Z,41.25
2023-10-15T16:02:26.973Z,40.10
2023-10-15T16:04:54.365Z,40.25
2023-10-15T16:07:23.129Z,40.94
2023-10-15T16:09:50.638Z,42.27
2023-10-15T16:12:18.729Z,42.13
2023-10-15T16:14:45.635Z,43.83
2023-10-15T16:17:12.444Z,44.11
2023-10-15T16:19:39.266Z,44.75
2023-10-15T16:22:06.071Z,44.56
2023-10-15T16:24:33.028Z,45.08
2023-10-15T16:27:00.034Z,45.50
2023-10-15T16:29:27.058Z,44.26
2023-10-15T16:31:53.825Z,43.78
2023-10-15T16:34:24.312Z,43.22
2023-10-15T16:36:52.585Z,44.15
2023-10-15T16:39:19.779Z,44.63
2023-10-15T16:41:46.736Z,45.37
2023-10-15T16:44:13.647Z,44.40
2023-10-15T16:46:40.633Z,45.61
2023-10-15T16:49:08.771Z,46.04
2023-10-15T16:51:35.660Z,46.39
2023-10-15T16:54:03.552Z,46.22
2023-10-15T16:56:30.340Z,47.36
2023-10-15T16:58:57.368Z,47.22
2023-10-15T17:01:24.509Z,47.46
2023-10-15T17:03:51.278Z,47.70
2023-10-15T17:06:19.224Z,47.08
2023-10-15T17:08:48.957Z,46.06
2023-10-15T17:11:16.315Z,46.28
2023-10-15T17:13:43.487Z,45.93
2023-10-15T17:16:10.383Z,45.62
2023-10-15T17:18:37.158Z,46.08
2023-10-15T17:21:04.276Z,47.81
2023-10-15T17:23:31.028Z,47.02
2023-10-15T17:25:58.518Z,47.23
2023-10-15T17:28:26.833Z,48.37
2023-10-15T17:30:53.842Z,48.39
2023-10-15T17:33:21.014Z,48.24
2023-10-15T17:35:47.817Z,49.30
2023-10-15T17:38:34.947Z,48.95
2023-10-15T17:41:02.580Z,48.34
2023-10-15T17:43:29.416Z,49.45
2023-10-15T17:45:56.396Z,49.45
2023-10-15T17:48:23.829Z,50.24
2023-10-15T17:50:57.209Z,50.30
2023-10-15T17:53:29.375Z,49.63
2023-10-15T17:55:58.902Z,48.27
2023-10-15T17:58:26.756Z,48.99
2023-10-15T18:00:53.903Z,48.83
2023-10-15T18:03:21.981Z,50.82
2023-10-15T18:05:50.453Z,49.49
2023-10-15T18:08:17.219Z,50.17
2023-10-15T18:10:44.940Z,49.93
2023-10-15T18:13:11.933Z,49.58
2023-10-15T18:15:38.776Z,50.05
2023-10-15T18:18:05.920Z,50.19
2023-10-15T18:20:32.976Z,51.34
2023-10-15T18:23:03.636Z,50.63
2023-10-15T18:25:33.555Z,51.01
2023-10-15T18:28:00.491Z,50.14
2023-10-15T18:30:27.373Z,51.87
2023-10-15T18:32:54.247Z,52.28
2023-10-15T18:35:21.110Z,51.62
2023-10-15T18:37:48.344Z,50.95
2023-10-15T18:40:16.244Z,51.73
2023-10-15T18:42:43.454Z,50.96
2023-10-15T18:45:11.576Z,51.69
2023-10-15T18:47:38.816Z,51.37
2023-10-15T18:50:07.885Z,51.07
2023-10-15T18:52:35.464Z,51.17
2023-10-15T18:55:04.329Z,50.94
2023-10-15T18:57:31.395Z,51.96
2023-10-15T18:59:59.077Z,50.72
2023-10-15T19:02:26.828Z,51.74
2023-10-15T19:04:53.748Z,52.06
2023-10-15T19:07:20.618Z,50.36
2023-10-15T19:09:47.380Z,49.00
2023-10-15T19:12:14.242Z,50.14
2023-10-15T19:14:42.589Z,50.98
2023-10-15T19:17:10.044Z,50.33
2023-10-15T19:19:38.871Z,50.28
2023-10-15T19:22:06.143Z,50.51
2023-10-15T19:24:33.796Z,49.17
2023-10-15T19:27:00.716Z,48.38
2023-10-15T19:29:27.679Z,49.14
2023-10-15T19:31:54.614Z,51.78
2023-10-15T19:34:21.701Z,50.81
2023-10-15T19:36:48.428Z,50.14
2023-10-15T19:39:17.058Z,49.57
2023-10-15T19:41:43.991Z,49.21
2023-10-15T19:44:11.312Z,49.69
2023-10-15T19:46:38.423Z,49.62
2023-10-15T19:49:05.365Z,51.09
2023-10-15T19:51:32.628Z,51.81
2023-10-15T19:53:59.442Z,53.96
2023-10-15T19:56:26.307Z,55.44
2023-10-15T19:58:53.055Z,55.79
2023-10-15T20:01:19.979Z,57.30
2023-10-15T20:04:03.004Z,57.42
2023-10-15T20:06:33.663Z,58.35
2023-10-15T20:09:01.241Z,57.91
2023-10-15T20:11:28.099Z,58.29
2023-10-15T20:13:55.029Z,59.26
2023-10-15T20:16:23.761Z,58.32
2023-10-15T20:18:51.256Z,58.21
2023-10-15T20:21:18.356Z,58.77
2023-10-15T20:23:45.293Z,58.72
2023-10-15T20:26:12.093Z,58.79
2023-10-15T20:28:38.900Z,59.38
2023-10-15T20:31:05.768Z,61.71
2023-10-15T20:33:33.333Z,63.00
2023-10-15T20:36:00.110Z,62.51
2023-10-15T20:38:28.202Z,60.52
2023-10-15T20:40:56.135Z,59.98
2023-10-15T20:43:23.010Z,60.44
2023-10-15T20:45:50.087Z,59.80
2023-10-15T20:48:17.005Z,58.26
2023-10-15T20:50:43.987Z,58.06
2023-10-15T20:53:10.866Z,55.05
2023-10-15T20:55:37.944Z,56.78
2023-10-15T20:58:04.856Z,56.51
2023-10-15T21:00:31.727Z,57.95
2023-10-15T21:03:00.888Z,56.96
2023-10-15T21:05:31.026Z,54.45
2023-10-15T21:07:58.009Z,54.41
2023-10-15T21:10:25.366Z,54.47
2023-10-15T21:12:52.474Z,54.90
2023-10-15T21:15:19.504Z,56.79
2023-10-15T21:17:46.333Z,56.96
2023-10-15T21:20:13.513Z,57.14
2023-10-15T21:22:41.592Z,57.20
2023-10-15T21:25:16.795Z,57.81
2023-10-15T21:27:44.281Z,55.73
2023-10-15T21:30:12.732Z,56.90
2023-10-15T21:32:41.161Z,57.27
2023-10-15T21:35:09.309Z,58.50
2023-10-15T21:37:40.713Z,55.68
2023-10-15T21:40:16.181Z,57.24
2023-10-15T21:42:47.938Z,58.12
2023-10-15T21:45:14.942Z,58.08
2023-10-15T21:47:43.468Z,57.22
2023-10-15T21:50:13.528Z,58.10
2023-10-15T21:52:40.368Z,57.24
2023-10-15T21:55:08.485Z,57.05
2023-10-15T21:57:35.413Z,56.70
2023-10-15T22:00:02.402Z,57.02
2023-10-15T22:02:30.119Z,57.34
2023-10-15T22:04:57.038Z,59.67
2023-10-15T22:07:23.945Z,59.25
2023-10-15T22:09:50.769Z,56.92
2023-10-15T22:12:20.155Z,58.26
2023-10-15T22:14:47.162Z,59.89
2023-10-15T22:17:15.894Z,60.42
2023-10-15T22:19:44.440Z,61.02
2023-10-15T22:22:12.309Z,61.89
2023-10-15T22:24:42.621Z,64.00
2023-10-15T22:27:15.322Z,65.39
2023-10-15T22:29:45.337Z,66.79
2023-10-15T22:32:12.990Z,69.74
2023-10-15T22:34:39.980Z,67.75
2023-10-15T22:37:09.742Z,67.78
2023-10-15T22:39:39.857Z,67.39
2023-10-15T22:42:12.804Z,66.94
2023-10-15T22:44:46.273Z,67.63
2023-10-15T22:47:14.241Z,66.74
2023-10-15T22:49:41.876Z,67.64
2023-10-15T22:52:09.313Z,68.87
2023-10-15T22:54:36.265Z,71.26
2023-10-15T22:57:04.730Z,71.36
2023-10-15T22:59:32.168Z,69.14
2023-10-15T23:01:59.109Z,71.03
2023-10-15T23:04:26.359Z,71.34
2023-10-15T23:06:54.823Z,73.14
2023-10-15T23:09:22.424Z,77.49
2023-10-15T23:11:50.105Z,77.64
2023-10-15T23:14:17.303Z,77.77
2023-10-15T23:16:46.683Z,78.82
2023-10-15T23:19:17.006Z,79.83
2023-10-15T23:21:50.260Z,82.77
2023-10-15T23:24:17.909Z,82.74
2023-10-15T23:26:44.991Z,79.08
2023-10-15T23:29:12.002Z,79.72
2023-10-15T23:31:41.553Z,80.24
2023-10-15T23:34:12.245Z,80.01
2023-10-15T23:36:39.170Z,80.54
2023-10-15T23:39:09.169Z,79.07
2023-10-15T23:41:37.162Z,79.83
2023-10-15T23:44:04.277Z,78.25
2023-10-15T23:46:32.547Z,79.54
2023-10-15T23:49:00.830Z,79.68
2023-10-15T23:51:30.091Z,79.12
2023-10-15T23:53:56.923Z,78.82
2023-10-15T23:56:33.225Z,79.28
2023-10-15T23:59:03.502Z,79.04
